Time;durP1;ratioP1;P1;durP2;ratioP2;P2;SDS_P1;SDS_P2;PMS_P1;PMS_P2;Temp;Humidity;BMP_temperature;BMP_pressure;BME280_temperature;BME280_humidity;BME280_pressure;Samples;Min_cycle;Max_cycle;Signal;HPM_P1;HPM_P2
2022/05/31 00:00:11;;;;;;;9.52;4.07;;;20.10;57.60;;;;;;5040919;28;20031;-62
2022/05/31 00:02:36;;;;;;;12.77;4.10;;;20.10;57.60;;;;;;5042457;28;20044;-61
2022/05/31 00:05:02;;;;;;;12.77;4.82;;;20.10;57.70;;;;;;5026596;28;20021;-61
2022/05/31 00:07:28;;;;;;;14.57;3.80;;;20.10;57.70;;;;;;5025680;28;20075;-62
2022/05/31 00:09:53;;;;;;;10.45;4.22;;;20.00;57.70;;;;;;5040747;28;20131;-61
2022/05/31 00:12:19;;;;;;;13.07;4.43;;;20.10;57.70;;;;;;5043868;28;20101;-61
2022/05/31 00:14:44;;;;;;;10.40;3.95;;;20.10;57.80;;;;;;5046045;28;20457;-61
2022/05/31 00:17:10;;;;;;;10.75;3.70;;;20.00;57.80;;;;;;5041739;28;20026;-60
2022/05/31 00:19:35;;;;;;;8.50;3.75;;;20.00;57.90;;;;;;5042625;28;20559;-60
2022/05/31 00:22:08;;;;;;;10.63;4.00;;;20.00;58.00;;;;;;5025707;28;20037;-61
2022/05/31 00:24:34;;;;;;;9.02;3.65;;;19.90;58.00;;;;;;5044049;28;20027;-61
2022/05/31 00:26:59;;;;;;;7.63;3.28;;;19.90;58.10;;;;;;5043422;28;20041;-61
2022/05/31 00:29:26;;;;;;;7.85;3.28;;;19.80;58.10;;;;;;5041354;28;20031;-61
2022/05/31 00:31:52;;;;;;;9.73;3.55;;;19.80;58.20;;;;;;5042186;28;20379;-61
2022/05/31 00:34:17;;;;;;;8.15;3.33;;;19.80;58.20;;;;;;5041802;28;20053;-62
2022/05/31 00:36:44;;;;;;;12.52;4.13;;;19.80;58.30;;;;;;5010761;28;20025;-60
2022/05/31 00:39:10;;;;;;;9.73;3.92;;;19.80;58.30;;;;;;5010693;28;20040;-61
2022/05/31 00:41:35;;;;;;;10.15;4.35;;;19.80;58.40;;;;;;5043652;28;20021;-60
2022/05/31 00:44:05;;;;;;;8.93;4.22;;;19.80;58.40;;;;;;5041705;28;20174;-63
2022/05/31 00:46:45;;;;;;;9.23;3.88;;;19.70;58.50;;;;;;5041713;28;20164;-62
2022/05/31 00:49:11;;;;;;;9.80;4.38;;;19.80;58.70;;;;;;5041285;28;20025;-62
2022/05/31 00:51:42;;;;;;;7.72;4.00;;;19.80;58.70;;;;;;5043139;28;20028;-62
2022/05/31 00:54:17;;;;;;;7.15;3.67;;;19.70;58.60;;;;;;5027335;28;20084;-61
2022/05/31 00:56:43;;;;;;;12.17;4.10;;;19.70;58.60;;;;;;5025834;28;20029;-63
2022/05/31 00:59:18;;;;;;;7.75;3.67;;;19.70;58.60;;;;;;5040056;28;20051;-61
2022/05/31 01:01:47;;;;;;;8.30;3.50;;;19.70;58.70;;;;;;5010403;28;20133;-62
2022/05/31 01:04:13;;;;;;;6.78;4.70;;;19.70;58.90;;;;;;5028382;28;20132;-60
2022/05/31 01:06:38;;;;;;;9.55;4.95;;;19.70;59.10;;;;;;5044524;28;20080;-61
2022/05/31 01:09:04;;;;;;;10.18;4.32;;;19.60;59.20;;;;;;5041597;28;20068;-60
2022/05/31 01:11:31;;;;;;;13.38;4.70;;;19.60;59.20;;;;;;5023625;28;20125;-62
2022/05/31 01:13:56;;;;;;;9.30;3.90;;;19.50;59.20;;;;;;5042147;28;20526;-62
2022/05/31 01:16:22;;;;;;;7.35;3.70;;;19.50;59.10;;;;;;5039030;28;20150;-60
2022/05/31 01:18:48;;;;;;;8.75;3.78;;;19.60;59.10;;;;;;5023859;28;20103;-60
2022/05/31 01:21:13;;;;;;;8.43;3.60;;;19.50;59.10;;;;;;5024281;28;20097;-60
2022/05/31 01:23:45;;;;;;;14.73;4.03;;;19.50;59.30;;;;;;5042447;28;20094;-60
2022/05/31 01:26:32;;;;;;;9.60;4.03;;;19.50;59.40;;;;;;5022999;28;20045;-62
2022/05/31 01:29:13;;;;;;;5.72;3.80;;;19.50;59.40;;;;;;5038380;28;20651;-62
2022/05/31 01:31:44;;;;;;;11.07;3.67;;;19.50;59.40;;;;;;5024652;28;20107;-62
2022/05/31 01:34:22;;;;;;;7.22;3.63;;;19.50;59.50;;;;;;5042111;28;20045;-63
2022/05/31 01:36:55;;;;;;;5.38;3.53;;;19.40;59.50;;;;;;5043252;28;20482;-63
2022/05/31 01:39:31;;;;;;;6.55;2.92;;;19.40;59.50;;;;;;5040703;28;20484;-60
2022/05/31 01:42:03;;;;;;;8.55;3.40;;;19.30;59.50;;;;;;5039821;28;20562;-62
2022/05/31 01:44:30;;;;;;;6.13;3.25;;;19.40;59.70;;;;;;5036724;28;20491;-60
2022/05/31 01:46:57;;;;;;;8.55;3.25;;;19.30;59.70;;;;;;5022411;28;20098;-61
2022/05/31 01:49:23;;;;;;;5.45;2.72;;;19.30;59.80;;;;;;5022387;28;20499;-60
2022/05/31 01:51:48;;;;;;;5.78;2.92;;;19.30;59.80;;;;;;5040638;28;20049;-62
2022/05/31 01:54:14;;;;;;;7.45;3.05;;;19.30;59.90;;;;;;5036748;28;20511;-60
2022/05/31 01:56:40;;;;;;;7.57;3.55;;;19.30;60.00;;;;;;5040712;28;20751;-63
2022/05/31 01:59:06;;;;;;;8.43;5.03;;;19.30;59.90;;;;;;5039861;28;20123;-62
2022/05/31 02:01:33;;;;;;;6.35;4.07;;;19.30;59.90;;;;;;5039192;28;20072;-60
2022/05/31 02:03:59;;;;;;;5.47;3.53;;;19.20;59.80;;;;;;5035429;28;20477;-60
2022/05/31 02:06:29;;;;;;;8.35;4.30;;;19.20;59.80;;;;;;5035370;28;20021;-62
2022/05/31 02:08:55;;;;;;;4.78;3.75;;;19.20;59.80;;;;;;5022662;28;20033;-61
2022/05/31 02:11:20;;;;;;;5.85;3.25;;;19.20;59.80;;;;;;5041500;28;20531;-62
2022/05/31 02:13:46;;;;;;;8.02;3.55;;;19.20;60.00;;;;;;5018027;28;20500;-62
2022/05/31 02:16:12;;;;;;;4.78;3.17;;;19.20;59.90;;;;;;5041896;28;20114;-61
2022/05/31 02:21:22;;;;;;;9.43;3.10;;;19.20;60.00;;;;;;5037329;28;20084;-61
2022/05/31 02:23:47;;;;;;;8.10;3.22;;;19.10;60.10;;;;;;5021926;28;20488;-62
2022/05/31 02:26:13;;;;;;;6.53;2.83;;;19.00;60.10;;;;;;5038709;28;20108;-60
2022/05/31 02:28:38;;;;;;;10.68;3.13;;;19.10;60.30;;;;;;5037212;28;20033;-63
2022/05/31 02:31:04;;;;;;;8.32;3.40;;;19.00;60.20;;;;;;5037963;28;20094;-61
2022/05/31 02:33:29;;;;;;;4.15;2.88;;;19.00;60.30;;;;;;5038106;28;20045;-61
2022/05/31 02:35:55;;;;;;;5.28;2.80;;;19.00;60.30;;;;;;5021960;28;20481;-62
2022/05/31 02:38:20;;;;;;;5.97;2.58;;;19.00;60.30;;;;;;5040994;28;20365;-63
2022/05/31 02:40:46;;;;;;;5.65;2.85;;;19.00;60.30;;;;;;5039805;28;20025;-62
2022/05/31 02:43:11;;;;;;;5.97;2.88;;;19.00;60.30;;;;;;5019253;28;20041;-61
2022/05/31 02:45:37;;;;;;;6.55;3.00;;;19.00;60.40;;;;;;5038417;28;20317;-61
2022/05/31 02:48:03;;;;;;;6.15;2.80;;;18.90;60.40;;;;;;5034978;28;20124;-63
2022/05/31 02:50:29;;;;;;;4.82;2.40;;;18.90;60.40;;;;;;5037126;28;20052;-65
2022/05/31 02:52:54;;;;;;;6.68;2.88;;;18.80;60.40;;;;;;5039260;28;20445;-62
2022/05/31 02:55:20;;;;;;;3.85;2.67;;;18.80;60.40;;;;;;5039750;28;20052;-61
2022/05/31 02:57:45;;;;;;;6.65;3.03;;;18.80;60.50;;;;;;5036873;28;20259;-61
2022/05/31 03:00:11;;;;;;;4.60;2.50;;;18.80;60.60;;;;;;5038004;28;20029;-61
2022/05/31 03:02:37;;;;;;;4.80;2.80;;;18.80;60.60;;;;;;5037201;28;20111;-62
2022/05/31 03:05:03;;;;;;;7.28;2.70;;;18.80;60.60;;;;;;5037540;28;20075;-60
2022/05/31 03:07:28;;;;;;;4.45;2.35;;;18.80;60.70;;;;;;5036862;28;20035;-63
2022/05/31 03:09:54;;;;;;;4.15;2.40;;;18.80;60.70;;;;;;5036423;28;20591;-61
2022/05/31 03:12:19;;;;;;;3.45;2.50;;;18.80;60.70;;;;;;5040599;28;20040;-63
2022/05/31 03:14:56;;;;;;;4.55;2.53;;;18.80;60.80;;;;;;5037607;28;20029;-60
2022/05/31 03:17:29;;;;;;;4.55;2.58;;;18.70;60.80;;;;;;5037839;28;20368;-61
2022/05/31 03:20:10;;;;;;;3.53;2.65;;;18.80;60.90;;;;;;5039647;28;20041;-61
2022/05/31 03:22:39;;;;;;;4.40;2.33;;;18.70;60.80;;;;;;5037895;28;20115;-62
2022/05/31 03:25:07;;;;;;;5.05;2.05;;;18.70;60.90;;;;;;5033735;28;20033;-63
2022/05/31 03:27:33;;;;;;;4.20;2.38;;;18.70;60.90;;;;;;5039049;28;20186;-64
2022/05/31 03:29:58;;;;;;;6.25;2.15;;;18.70;61.70;;;;;;5036019;28;20527;-64
2022/05/31 03:32:24;;;;;;;4.90;2.20;;;18.70;61.10;;;;;;5039779;28;20189;-63
2022/05/31 03:34:50;;;;;;;7.38;2.40;;;18.60;61.00;;;;;;5038363;28;20075;-65
2022/05/31 03:37:15;;;;;;;3.60;2.17;;;18.60;61.00;;;;;;5040953;28;20041;-64
2022/05/31 03:39:41;;;;;;;7.72;2.20;;;18.60;61.00;;;;;;5008912;28;20077;-63
2022/05/31 03:42:06;;;;;;;4.70;2.13;;;18.60;61.00;;;;;;5043084;28;20078;-65
2022/05/31 03:44:32;;;;;;;4.65;2.33;;;18.60;61.10;;;;;;5024695;28;20036;-64
2022/05/31 03:46:58;;;;;;;3.70;2.10;;;18.60;61.20;;;;;;5040725;28;20037;-64
2022/05/31 03:49:23;;;;;;;7.15;2.65;;;18.60;61.20;;;;;;5039521;28;20045;-64
2022/05/31 03:51:49;;;;;;;5.72;2.60;;;18.60;61.20;;;;;;5040967;28;20493;-65
2022/05/31 03:54:14;;;;;;;6.97;2.75;;;18.50;61.20;;;;;;5026510;28;20116;-63
2022/05/31 03:56:40;;;;;;;5.15;2.08;;;18.50;61.30;;;;;;5042639;28;20044;-65
2022/05/31 03:59:05;;;;;;;4.22;2.22;;;18.40;61.30;;;;;;5025509;28;20060;-63
2022/05/31 04:01:31;;;;;;;4.72;2.47;;;18.40;61.40;;;;;;5038988;28;20071;-63
2022/05/31 04:03:56;;;;;;;5.32;2.08;;;18.40;61.40;;;;;;5042823;28;20025;-64
2022/05/31 04:06:22;;;;;;;3.65;2.70;;;18.40;61.40;;;;;;5040577;28;20118;-64
2022/05/31 04:08:47;;;;;;;3.35;2.28;;;18.40;61.40;;;;;;5027242;28;20035;-60
2022/05/31 04:11:13;;;;;;;3.92;2.50;;;18.40;61.60;;;;;;5041481;28;20163;-61
2022/05/31 04:13:39;;;;;;;3.20;2.40;;;18.40;61.60;;;;;;5024856;28;20037;-61
2022/05/31 04:16:11;;;;;;;7.85;2.00;;;18.40;61.60;;;;;;5040762;28;20112;-60
2022/05/31 04:18:38;;;;;;;11.63;2.70;;;18.40;61.60;;;;;;5042696;28;20035;-62
2022/05/31 04:21:04;;;;;;;9.00;2.35;;;18.40;61.50;;;;;;5044769;28;20480;-61
2022/05/31 04:26:14;;;;;;;21.77;3.30;;;18.40;61.50;;;;;;5042296;28;20046;-62
2022/05/31 04:28:40;;;;;;;23.70;3.30;;;18.40;61.50;;;;;;5039320;28;20032;-61
2022/05/31 04:31:06;;;;;;;27.95;3.95;;;18.30;61.50;;;;;;5025425;28;20026;-62
2022/05/31 04:33:31;;;;;;;24.92;3.83;;;18.40;61.60;;;;;;5043701;28;20124;-61
2022/05/31 04:36:01;;;;;;;11.25;2.70;;;18.30;61.60;;;;;;5042000;28;20468;-62
2022/05/31 04:38:27;;;;;;;20.15;3.85;;;18.30;61.70;;;;;;5023990;28;20036;-63
2022/05/31 04:40:52;;;;;;;13.23;3.05;;;18.30;61.70;;;;;;5041576;28;20037;-62
2022/05/31 04:43:18;;;;;;;13.80;3.13;;;18.30;61.80;;;;;;5041648;28;20110;-60
2022/05/31 04:45:43;;;;;;;14.27;3.33;;;18.30;61.80;;;;;;5042021;28;20210;-60
2022/05/31 04:48:09;;;;;;;14.18;3.42;;;18.30;61.90;;;;;;5031788;28;20072;-63
2022/05/31 04:50:35;;;;;;;16.30;3.03;;;18.30;62.00;;;;;;5036255;28;20040;-60
2022/05/31 04:53:01;;;;;;;9.25;3.10;;;18.30;62.10;;;;;;5035954;28;20537;-60
2022/05/31 04:55:29;;;;;;;14.35;3.05;;;18.30;62.70;;;;;;5039304;28;20052;-61
2022/05/31 04:57:54;;;;;;;13.95;2.75;;;18.30;61.90;;;;;;5022880;28;20121;-61
2022/05/31 05:00:20;;;;;;;19.23;3.22;;;18.30;62.30;;;;;;5038302;28;20104;-61
2022/05/31 05:02:46;;;;;;;14.07;2.95;;;18.20;62.00;;;;;;5038008;28;20044;-60
2022/05/31 05:05:11;;;;;;;9.85;2.85;;;18.20;62.00;;;;;;5037498;28;20630;-60
2022/05/31 05:07:37;;;;;;;12.77;2.25;;;18.20;62.20;;;;;;5038372;28;20102;-60
2022/05/31 05:10:05;;;;;;;9.95;3.03;;;18.20;62.30;;;;;;5036930;28;20445;-62
2022/05/31 05:12:30;;;;;;;9.80;2.88;;;18.20;62.30;;;;;;5041173;28;20427;-60
2022/05/31 05:14:56;;;;;;;16.15;2.85;;;18.30;62.40;;;;;;5037246;28;20041;-62
2022/05/31 05:17:23;;;;;;;11.93;3.35;;;18.20;62.30;;;;;;5041100;28;20048;-60
2022/05/31 05:19:48;;;;;;;16.88;3.28;;;18.20;62.40;;;;;;5016723;28;20064;-61
2022/05/31 05:22:14;;;;;;;12.27;3.13;;;18.20;62.50;;;;;;5022830;28;20052;-60
2022/05/31 05:24:39;;;;;;;18.67;3.65;;;18.20;62.50;;;;;;5040775;28;20452;-61
2022/05/31 05:27:05;;;;;;;7.50;2.47;;;18.20;62.50;;;;;;5024662;28;20578;-62
2022/05/31 05:32:14;;;;;;;9.00;2.70;;;18.20;62.50;;;;;;5039289;28;20090;-61
2022/05/31 05:34:40;;;;;;;9.07;2.85;;;18.20;62.40;;;;;;5033391;28;20570;-60
2022/05/31 05:37:06;;;;;;;7.93;2.47;;;18.20;62.50;;;;;;5039785;28;20037;-62
2022/05/31 05:39:31;;;;;;;18.27;2.90;;;18.20;62.40;;;;;;5039727;28;20419;-62
2022/05/31 05:41:57;;;;;;;13.40;2.97;;;18.20;62.30;;;;;;5042843;28;20033;-60
2022/05/31 05:44:22;;;;;;;7.43;2.50;;;18.20;62.30;;;;;;5037396;28;20421;-60
2022/05/31 05:46:48;;;;;;;11.52;2.95;;;18.30;62.40;;;;;;5022583;28;20075;-63
2022/05/31 05:49:13;;;;;;;9.75;2.80;;;18.30;62.30;;;;;;5039326;28;20060;-60
2022/05/31 05:51:39;;;;;;;7.00;2.60;;;18.30;62.30;;;;;;5039663;28;20036;-62
2022/05/31 05:54:06;;;;;;;7.07;2.45;;;18.20;62.30;;;;;;5038214;28;20059;-61
2022/05/31 05:56:32;;;;;;;9.32;3.00;;;18.30;62.50;;;;;;5038902;28;20013;-62
2022/05/31 05:58:57;;;;;;;7.70;2.53;;;18.30;62.60;;;;;;5036787;28;20045;-61
2022/05/31 06:01:53;;;;;;;6.57;2.42;;;18.30;62.60;;;;;;5038530;28;20025;-63
2022/05/31 06:04:42;;;;;;;9.48;2.53;;;18.30;62.80;;;;;;5024813;28;20033;-63
2022/05/31 06:07:17;;;;;;;5.25;2.28;;;18.30;63.20;;;;;;5038066;28;20570;-60
2022/05/31 06:09:46;;;;;;;7.45;2.55;;;18.20;63.30;;;;;;5036881;28;20094;-61
2022/05/31 06:12:15;;;;;;;6.15;2.55;;;18.20;63.20;;;;;;5034026;28;20060;-62
2022/05/31 06:14:46;;;;;;;5.32;1.92;;;18.20;63.50;;;;;;5038123;28;20449;-62
2022/05/31 06:17:17;;;;;;;7.40;2.13;;;18.20;63.60;;;;;;5036961;28;20044;-62
2022/05/31 06:19:43;;;;;;;3.95;1.90;;;18.20;63.70;;;;;;5021339;28;20044;-61
2022/05/31 06:22:08;;;;;;;4.43;2.33;;;18.20;63.60;;;;;;5039964;28;20025;-62
2022/05/31 06:24:34;;;;;;;6.40;2.40;;;18.20;63.70;;;;;;5020145;28;20038;-61
2022/05/31 06:27:00;;;;;;;5.35;2.40;;;18.20;63.80;;;;;;5037267;28;20416;-62
2022/05/31 06:29:27;;;;;;;5.45;2.20;;;18.20;63.50;;;;;;5035844;28;20108;-60
2022/05/31 06:31:53;;;;;;;6.50;2.63;;;18.20;64.20;;;;;;5037990;28;20350;-63
2022/05/31 06:34:19;;;;;;;4.30;2.20;;;18.20;64.30;;;;;;5039669;28;20041;-60
2022/05/31 06:36:44;;;;;;;11.77;2.50;;;18.20;64.40;;;;;;5039886;28;20029;-62
2022/05/31 06:39:11;;;;;;;11.80;2.33;;;18.20;64.50;;;;;;5038625;28;20564;-61
2022/05/31 06:41:36;;;;;;;9.82;2.55;;;18.20;65.00;;;;;;5034794;28;20030;-61
2022/05/31 06:44:02;;;;;;;7.30;2.60;;;18.20;65.00;;;;;;5038832;28;20116;-62
2022/05/31 06:46:29;;;;;;;7.90;2.45;;;18.20;65.40;;;;;;5017916;28;20021;-60
2022/05/31 06:48:54;;;;;;;21.90;3.63;;;18.10;65.50;;;;;;5036234;28;20503;-61
2022/05/31 06:56:53;;;;;;;39.80;5.68;;;18.10;65.50;;;;;;5037470;28;20045;-61
2022/05/31 06:59:18;;;;;;;17.75;3.47;;;18.10;65.90;;;;;;5035172;28;20473;-60
2022/05/31 07:01:47;;;;;;;24.83;5.22;;;18.10;66.00;;;;;;5037959;28;20029;-61
2022/05/31 07:04:12;;;;;;;32.17;4.95;;;18.20;66.10;;;;;;5033580;28;20114;-62
2022/05/31 07:06:38;;;;;;;40.33;5.85;;;18.20;66.40;;;;;;5039191;28;20021;-62
2022/05/31 07:09:04;;;;;;;29.30;4.65;;;18.20;66.30;;;;;;5038599;28;20448;-62
2022/05/31 07:11:29;;;;;;;29.63;5.35;;;18.20;66.40;;;;;;5042208;28;20489;-62
2022/05/31 07:13:55;;;;;;;33.63;5.30;;;18.20;66.90;;;;;;5045068;28;20029;-61
2022/05/31 07:16:20;;;;;;;26.02;4.90;;;18.20;67.20;;;;;;5041176;28;20044;-62
2022/05/31 07:18:46;;;;;;;24.63;4.82;;;18.20;67.40;;;;;;5036832;28;20068;-62
2022/05/31 07:21:11;;;;;;;18.35;4.25;;;18.20;67.70;;;;;;5038137;28;20029;-62
2022/05/31 07:23:38;;;;;;;25.08;4.70;;;18.20;67.20;;;;;;5035618;28;20166;-62
2022/05/31 07:26:04;;;;;;;31.73;5.88;;;18.20;67.70;;;;;;5023329;28;20132;-60
2022/05/31 07:28:29;;;;;;;25.55;4.43;;;18.20;67.80;;;;;;5005110;28;20687;-63
2022/05/31 07:30:55;;;;;;;32.75;5.32;;;18.20;68.00;;;;;;5038881;28;20088;-61
2022/05/31 07:33:21;;;;;;;28.42;4.78;;;18.20;68.50;;;;;;5041261;28;20087;-61
2022/05/31 07:35:49;;;;;;;35.60;5.20;;;18.20;68.60;;;;;;5039947;28;20030;-61
2022/05/31 07:38:15;;;;;;;28.52;5.03;;;18.20;68.60;;;;;;5038456;28;20796;-62
2022/05/31 07:40:40;;;;;;;50.33;5.55;;;18.20;68.70;;;;;;5033909;28;20033;-61
2022/05/31 07:43:06;;;;;;;18.60;4.03;;;18.20;68.90;;;;;;5002183;28;20430;-61
2022/05/31 07:45:31;;;;;;;44.03;6.13;;;18.30;68.50;;;;;;5034284;28;20036;-62
2022/05/31 07:47:57;;;;;;;38.10;5.28;;;18.30;69.00;;;;;;5037238;28;20131;-61
2022/05/31 07:50:23;;;;;;;33.85;5.88;;;18.30;69.20;;;;;;5009527;28;20024;-63
2022/05/31 07:52:49;;;;;;;35.47;6.68;;;18.40;69.20;;;;;;5039623;28;20049;-63
2022/05/31 07:55:14;;;;;;;31.92;6.40;;;18.40;68.80;;;;;;5021640;28;20082;-60
2022/05/31 08:00:24;;;;;;;46.70;5.78;;;18.40;69.20;;;;;;5039090;28;20047;-61
2022/05/31 08:02:50;;;;;;;32.78;5.10;;;18.50;69.10;;;;;;5036488;28;20041;-60
2022/05/31 08:05:15;;;;;;;26.83;4.97;;;18.50;69.10;;;;;;5024760;28;20440;-61
2022/05/31 08:07:41;;;;;;;22.15;4.35;;;18.60;69.30;;;;;;5038727;28;20525;-61
2022/05/31 08:10:08;;;;;;;26.17;4.68;;;18.60;69.20;;;;;;5039796;28;20579;-62
2022/05/31 08:12:33;;;;;;;31.92;4.40;;;18.70;69.00;;;;;;5038807;28;20568;-63
2022/05/31 08:14:59;;;;;;;40.95;5.35;;;18.70;69.00;;;;;;5036913;28;20033;-61
2022/05/31 08:17:24;;;;;;;46.08;5.40;;;18.70;69.00;;;;;;5040503;28;20499;-61
2022/05/31 08:19:50;;;;;;;25.33;4.22;;;18.70;69.00;;;;;;5041727;28;20048;-61
2022/05/31 08:22:15;;;;;;;27.15;4.68;;;18.70;69.10;;;;;;5037790;28;20083;-60
2022/05/31 08:24:41;;;;;;;31.27;4.13;;;18.70;69.10;;;;;;5040280;28;20024;-61
2022/05/31 08:27:06;;;;;;;36.58;6.05;;;18.70;69.00;;;;;;5038004;28;20134;-62
2022/05/31 08:29:32;;;;;;;83.05;8.77;;;18.80;69.00;;;;;;5041977;28;20074;-61
2022/05/31 08:32:00;;;;;;;49.00;5.80;;;18.80;69.00;;;;;;5039402;28;20136;-61
2022/05/31 08:34:29;;;;;;;49.97;6.32;;;18.90;68.80;;;;;;5040677;28;20213;-62
2022/05/31 08:36:55;;;;;;;56.22;6.93;;;18.90;68.70;;;;;;5039287;28;20116;-62
2022/05/31 08:39:20;;;;;;;67.10;8.80;;;19.00;68.60;;;;;;5037892;28;20029;-61
2022/05/31 08:41:47;;;;;;;41.78;5.95;;;19.00;68.50;;;;;;5039740;28;20064;-62
2022/05/31 08:44:16;;;;;;;36.70;6.00;;;19.10;68.40;;;;;;5024222;28;20037;-61
2022/05/31 08:47:00;;;;;;;48.67;5.78;;;19.10;68.40;;;;;;5038326;28;20052;-61
2022/05/31 08:52:48;;;;;;;91.03;10.00;;;19.20;68.20;;;;;;5037797;28;20160;-62
2022/05/31 08:58:10;;;;;;;57.83;8.40;;;19.30;68.30;;;;;;5038364;28;20078;-62
2022/05/31 09:00:39;;;;;;;67.45;9.07;;;19.30;68.10;;;;;;5038984;28;20021;-61
2022/05/31 09:03:14;;;;;;;58.90;7.97;;;19.40;68.40;;;;;;5021932;28;20117;-61
2022/05/31 09:05:50;;;;;;;79.13;8.95;;;19.40;68.90;;;;;;5033306;28;20028;-61
2022/05/31 09:08:24;;;;;;;81.13;11.60;;;19.50;68.70;;;;;;5036858;28;20036;-61
2022/05/31 09:11:15;;;;;;;73.82;8.85;;;19.50;67.90;;;;;;5042125;28;20033;-60
2022/05/31 09:13:50;;;;;;;74.10;9.55;;;19.50;67.50;;;;;;5023812;28;20408;-61
2022/05/31 09:16:50;;;;;;;82.05;9.68;;;19.50;67.20;;;;;;5021318;28;20045;-60
2022/05/31 09:19:23;;;;;;;105.47;10.82;;;19.50;66.90;;;;;;5038654;28;20363;-63
2022/05/31 09:21:49;;;;;;;77.10;9.23;;;19.60;67.00;;;;;;5038529;28;20139;-60
2022/05/31 09:24:16;;;;;;;72.13;9.45;;;19.60;66.80;;;;;;5033083;28;20029;-63
2022/05/31 09:27:07;;;;;;;76.10;8.32;;;19.60;66.30;;;;;;5035136;28;20112;-62
2022/05/31 09:29:41;;;;;;;75.05;10.82;;;19.70;65.70;;;;;;5033984;28;20033;-62
2022/05/31 09:32:09;;;;;;;74.72;8.18;;;19.70;65.20;;;;;;5037171;28;20036;-62
2022/05/31 09:35:09;;;;;;;53.13;7.45;;;19.80;64.90;;;;;;5033268;28;20095;-62
2022/05/31 09:37:56;;;;;;;54.85;7.10;;;19.80;64.80;;;;;;5005790;28;20115;-62
2022/05/31 09:40:46;;;;;;;44.35;5.95;;;19.90;64.30;;;;;;5035901;28;20104;-61
2022/05/31 09:43:45;;;;;;;62.25;7.75;;;20.00;64.10;;;;;;5035524;28;20053;-62
2022/05/31 09:46:19;;;;;;;35.00;6.00;;;20.00;63.60;;;;;;5037445;28;20044;-62
2022/05/31 09:48:47;;;;;;;34.83;4.97;;;20.10;63.50;;;;;;5039222;28;20116;-61
2022/05/31 09:51:24;;;;;;;30.35;6.20;;;20.10;63.10;;;;;;5037334;28;20025;-63
2022/05/31 09:59:23;;;;;;;28.75;5.28;;;20.20;62.70;;;;;;5035360;28;20719;-61
2022/05/31 10:01:49;;;;;;;25.98;5.25;;;20.30;62.80;;;;;;5036859;28;20037;-62
2022/05/31 10:04:29;;;;;;;45.97;5.97;;;20.40;62.60;;;;;;5039270;28;20025;-61
2022/05/31 10:06:57;;;;;;;33.10;5.55;;;20.40;62.50;;;;;;5039226;28;20465;-61
2022/05/31 10:09:43;;;;;;;43.30;5.55;;;20.40;62.30;;;;;;5034571;28;20029;-61
2022/05/31 10:12:17;;;;;;;30.90;4.40;;;20.40;62.00;;;;;;5032160;28;20033;-61
2022/05/31 10:14:48;;;;;;;45.95;5.25;;;20.50;62.10;;;;;;5036229;28;20025;-60
2022/05/31 10:17:37;;;;;;;32.25;5.30;;;20.50;62.00;;;;;;5036562;28;20060;-61
2022/05/31 10:20:21;;;;;;;33.92;5.03;;;20.60;62.10;;;;;;5040592;28;20032;-62
2022/05/31 10:22:51;;;;;;;37.58;5.47;;;20.70;61.90;;;;;;5035727;28;20060;-63
2022/05/31 10:25:18;;;;;;;32.47;4.72;;;20.70;61.70;;;;;;5032576;28;20055;-63
2022/05/31 10:27:43;;;;;;;35.53;5.25;;;20.80;61.70;;;;;;5022287;28;20074;-62
2022/05/31 10:30:16;;;;;;;38.78;5.35;;;20.80;61.90;;;;;;5032938;28;20474;-61
2022/05/31 10:32:42;;;;;;;34.08;5.13;;;20.80;61.80;;;;;;5018164;28;20124;-62
2022/05/31 10:35:42;;;;;;;34.22;5.32;;;20.90;61.90;;;;;;5036366;28;20080;-61
2022/05/31 10:38:17;;;;;;;49.40;5.97;;;20.90;61.70;;;;;;5037733;28;20795;-61
2022/05/31 10:40:48;;;;;;;31.45;4.53;;;21.00;61.80;;;;;;5035410;28;20119;-61
2022/05/31 10:43:33;;;;;;;31.15;4.70;;;21.10;61.50;;;;;;5032474;28;20033;-62
2022/05/31 10:45:58;;;;;;;47.80;4.95;;;21.10;61.30;;;;;;5021824;28;20465;-62
2022/05/31 10:48:25;;;;;;;35.67;4.35;;;21.10;61.40;;;;;;5030920;28;20048;-61
2022/05/31 10:50:55;;;;;;;63.55;7.95;;;21.10;61.30;;;;;;5020862;28;20787;-62
2022/05/31 10:53:30;;;;;;;54.28;7.85;;;21.20;61.30;;;;;;5019729;28;20029;-61
2022/05/31 10:56:15;;;;;;;33.45;5.28;;;21.20;61.30;;;;;;5019970;28;20120;-61
2022/05/31 10:58:41;;;;;;;47.20;6.95;;;21.20;61.40;;;;;;5033400;28;20086;-61
2022/05/31 11:01:12;;;;;;;76.05;11.40;;;21.20;61.60;;;;;;5029052;28;20029;-63
2022/05/31 11:03:58;;;;;;;58.85;7.15;;;21.20;61.50;;;;;;5033971;28;20447;-62
2022/05/31 11:06:59;;;;;;;48.05;7.05;;;21.20;61.40;;;;;;5033875;28;20027;-62
2022/05/31 11:13:09;;;;;;;37.63;5.60;;;21.30;61.80;;;;;;5036175;28;20036;-63
2022/05/31 11:15:45;;;;;;;259.33;25.17;;;21.30;61.60;;;;;;4981713;28;20047;-61
2022/05/31 11:18:14;;;;;;;69.82;8.38;;;21.30;61.80;;;;;;5010734;28;20401;-62
2022/05/31 11:20:48;;;;;;;55.28;7.32;;;21.30;61.80;;;;;;5032159;28;20025;-61
2022/05/31 11:23:52;;;;;;;25.45;4.20;;;21.30;61.70;;;;;;5029489;28;20033;-62
2022/05/31 11:26:29;;;;;;;44.33;4.65;;;21.30;61.60;;;;;;5033236;28;20280;-62
2022/05/31 11:29:23;;;;;;;38.25;5.65;;;21.30;61.60;;;;;;5015823;28;20032;-61
2022/05/31 11:32:00;;;;;;;111.88;14.43;;;21.30;62.00;;;;;;5034398;28;20033;-61
2022/05/31 11:34:51;;;;;;;61.35;6.80;;;21.30;62.00;;;;;;5036704;28;20125;-61
2022/05/31 11:37:45;;;;;;;29.33;4.68;;;21.60;61.90;;;;;;5033074;28;20072;-62
2022/05/31 11:40:13;;;;;;;29.83;4.03;;;21.30;61.70;;;;;;5033096;28;20032;-61
2022/05/31 11:42:58;;;;;;;18.75;3.63;;;21.30;61.70;;;;;;5027437;28;20037;-62
2022/05/31 11:45:52;;;;;;;28.60;4.60;;;21.30;61.70;;;;;;5024493;28;20028;-62
2022/05/31 11:48:24;;;;;;;20.60;3.25;;;21.20;61.60;;;;;;5023140;28;20512;-62
2022/05/31 11:51:10;;;;;;;26.60;3.67;;;21.20;61.40;;;;;;5027243;28;20396;-61
2022/05/31 11:54:13;;;;;;;19.25;2.95;;;21.20;61.40;;;;;;5014822;28;20461;-61
2022/05/31 11:56:47;;;;;;;16.05;3.17;;;21.20;61.30;;;;;;5039122;28;20044;-62
2022/05/31 11:59:15;;;;;;;41.80;5.22;;;21.20;61.40;;;;;;5041181;28;20108;-61
2022/05/31 12:02:00;;;;;;;24.95;3.85;;;21.20;61.40;;;;;;5030544;28;20051;-61
2022/05/31 12:04:57;;;;;;;24.40;3.05;;;21.20;61.40;;;;;;5024179;28;20487;-61
2022/05/31 12:07:41;;;;;;;26.65;4.95;;;21.10;61.60;;;;;;5017815;28;20417;-61
2022/05/31 12:10:21;;;;;;;24.35;4.10;;;21.10;61.70;;;;;;5034907;28;20034;-61
2022/05/31 12:12:47;;;;;;;27.58;3.63;;;21.10;61.80;;;;;;5010466;28;20073;-62
2022/05/31 12:15:21;;;;;;;20.23;3.30;;;21.10;61.90;;;;;;5039889;28;20029;-62
2022/05/31 12:17:52;;;;;;;14.85;3.08;;;21.10;61.80;;;;;;5024101;28;20132;-61
2022/05/31 12:20:23;;;;;;;25.90;3.45;;;21.10;61.50;;;;;;5023943;28;20722;-62
2022/05/31 12:22:56;;;;;;;27.27;3.60;;;21.10;61.30;;;;;;5036276;28;21251;-61
2022/05/31 12:25:28;;;;;;;36.20;5.13;;;21.10;61.40;;;;;;5035507;28;20029;-61
2022/05/31 12:28:08;;;;;;;21.92;3.63;;;21.20;61.30;;;;;;5024366;28;20025;-61
2022/05/31 12:30:46;;;;;;;21.98;3.55;;;21.20;61.10;;;;;;5023901;28;20132;-61
2022/05/31 12:33:44;;;;;;;28.95;3.75;;;21.20;61.10;;;;;;5023063;28;20037;-63
2022/05/31 12:36:11;;;;;;;8.32;2.28;;;21.30;61.00;;;;;;5012106;28;20055;-61
2022/05/31 12:38:59;;;;;;;40.03;4.20;;;21.30;60.90;;;;;;5022934;28;20457;-61
2022/05/31 12:41:31;;;;;;;25.35;3.78;;;21.30;60.90;;;;;;5037771;28;20700;-61
2022/05/31 12:43:56;;;;;;;40.78;4.35;;;21.40;60.90;;;;;;5039096;28;20048;-61
2022/05/31 12:46:29;;;;;;;23.73;3.53;;;21.40;60.90;;;;;;5003388;28;20408;-61
2022/05/31 12:49:19;;;;;;;31.77;3.45;;;21.40;60.80;;;;;;5038765;28;20095;-61
2022/05/31 12:52:43;;;;;;;33.45;3.63;;;21.50;61.00;;;;;;5034517;28;20060;-61
2022/05/31 12:55:24;;;;;;;55.67;4.50;;;21.50;61.10;;;;;;5037843;28;20465;-62
2022/05/31 13:00:52;;;;;;;40.50;4.03;;;21.60;61.20;;;;;;5037591;28;20039;-60
2022/05/31 13:03:33;;;;;;;28.55;4.38;;;21.70;61.10;;;;;;5020255;28;20036;-62
2022/05/31 13:06:09;;;;;;;37.88;4.47;;;21.70;61.10;;;;;;5042561;28;20029;-61
2022/05/31 13:08:56;;;;;;;23.48;4.28;;;21.80;61.20;;;;;;5024933;28;20040;-61
2022/05/31 13:20:36;;;;;;;26.48;4.10;;;22.10;60.70;;;;;;5029599;28;20040;-62
2022/05/31 13:23:13;;;;;;;45.20;4.40;;;22.20;60.70;;;;;;5039687;28;20159;-62
2022/05/31 13:25:54;;;;;;;26.83;4.10;;;22.30;60.60;;;;;;5022405;28;20032;-62
2022/05/31 13:28:27;;;;;;;34.90;4.45;;;22.40;60.30;;;;;;5042880;28;20420;-61
2022/05/31 13:31:00;;;;;;;29.40;4.05;;;22.50;60.20;;;;;;5039430;28;20033;-63
2022/05/31 13:33:26;;;;;;;29.58;4.55;;;22.60;60.20;;;;;;5020362;28;20089;-62
2022/05/31 13:36:08;;;;;;;30.73;4.93;;;22.60;60.10;;;;;;5034171;28;20045;-62
2022/05/31 13:38:35;;;;;;;24.35;4.10;;;22.70;60.00;;;;;;5036186;28;20045;-64
2022/05/31 13:41:02;;;;;;;22.08;3.38;;;22.70;60.00;;;;;;5023586;28;20021;-61